Time;durP1;ratioP1;P1;durP2;ratioP2;P2;SDS_P1;SDS_P2;PMS_P1;PMS_P2;Temp;Humidity;BMP_temperature;BMP_pressure;BME280_temperature;BME280_humidity;BME280_pressure;Samples;Min_cycle;Max_cycle;Signal;HPM_P1;HPM_P2
2023/08/25 00:01:52;;;;;;;;;;;24.30;61.70;;;;;;5098994;27;19976;-59
2023/08/25 00:04:18;;;;;;;;;;;24.30;61.70;;;;;;5119020;27;19923;-59
2023/08/25 00:06:45;;;;;;;;;;;24.30;61.80;;;;;;5094000;28;19927;-59
2023/08/25 00:09:12;;;;;;;;;;;24.30;61.80;;;;;;5096089;28;19924;-59
2023/08/25 00:11:39;;;;;;;;;;;24.30;61.80;;;;;;5096595;27;19930;-59
2023/08/25 00:14:06;;;;;;;;;;;24.30;61.80;;;;;;5122969;27;20339;-60
2023/08/25 00:16:34;;;;;;;;;;;24.30;61.90;;;;;;5101502;28;19928;-58
2023/08/25 00:19:01;;;;;;;;;;;24.30;62.00;;;;;;5096254;28;19927;-59
2023/08/25 00:21:28;;;;;;;;;;;24.30;62.00;;;;;;5096207;28;19924;-59
2023/08/25 00:23:55;;;;;;;;;;;24.30;62.00;;;;;;5095802;27;19931;-59
2023/08/25 00:26:22;;;;;;;;;;;24.30;62.80;;;;;;5096295;28;19924;-60
2023/08/25 00:28:49;;;;;;;;;;;24.30;62.10;;;;;;5114720;27;19924;-60
2023/08/25 00:31:15;;;;;;;;;;;24.30;62.10;;;;;;5097144;28;20188;-59
2023/08/25 00:33:49;;;;;;;;;;;24.30;62.20;;;;;;5098954;28;19935;-59
2023/08/25 00:36:16;;;;;;;;;;;24.30;62.30;;;;;;5111482;27;19928;-60
2023/08/25 00:38:43;;;;;;;;;;;24.30;62.40;;;;;;5116477;27;19931;-58
2023/08/25 00:41:09;;;;;;;;;;;24.30;62.40;;;;;;5112753;28;19924;-59
2023/08/25 00:43:38;;;;;;;;;;;24.30;62.50;;;;;;5114074;28;20030;-60
2023/08/25 00:46:04;;;;;;;;;;;24.30;62.60;;;;;;5114466;27;20479;-59
2023/08/25 00:48:31;;;;;;;;;;;24.30;62.70;;;;;;5094037;28;19924;-59
2023/08/25 00:50:59;;;;;;;;;;;24.30;62.70;;;;;;5101689;28;21246;-59
2023/08/25 00:53:26;;;;;;;;;;;24.30;62.70;;;;;;5095804;28;19986;-59
2023/08/25 00:55:53;;;;;;;;;;;24.30;62.70;;;;;;5111840;27;19928;-59
2023/08/25 00:58:20;;;;;;;;;;;24.30;62.80;;;;;;5094021;28;19950;-60
2023/08/25 01:00:46;;;;;;;;;;;24.30;62.70;;;;;;5098104;28;19936;-60
2023/08/25 01:03:13;;;;;;;;;;;24.30;62.80;;;;;;5098735;27;19931;-60
2023/08/25 01:05:40;;;;;;;;;;;24.30;62.80;;;;;;5120130;27;19931;-60
2023/08/25 01:08:08;;;;;;;;;;;24.30;62.90;;;;;;5112809;27;19981;-60
2023/08/25 01:10:37;;;;;;;;;;;24.20;62.70;;;;;;5093720;27;20002;-59
2023/08/25 01:13:05;;;;;;;;;;;24.30;62.90;;;;;;5084297;28;19928;-59
2023/08/25 01:15:32;;;;;;;;;;;24.30;63.00;;;;;;5097988;27;20050;-60
2023/08/25 01:18:00;;;;;;;;;;;24.30;62.90;;;;;;5099183;27;19931;-60
2023/08/25 01:20:26;;;;;;;;;;;24.20;62.90;;;;;;5096507;27;19934;-60
2023/08/25 01:22:55;;;;;;;;;;;24.30;63.00;;;;;;5121939;27;19924;-60
2023/08/25 01:25:25;;;;;;;;;;;24.30;63.00;;;;;;5094969;28;19935;-60
2023/08/25 01:27:52;;;;;;;;;;;24.30;63.00;;;;;;5101852;27;19931;-59
2023/08/25 01:30:19;;;;;;;;;;;24.30;63.10;;;;;;5114363;27;20400;-59
2023/08/25 01:32:46;;;;;;;;;;;24.30;63.10;;;;;;5096597;27;19930;-59
2023/08/25 01:35:15;;;;;;;;;;;24.30;63.10;;;;;;5095197;28;19992;-59
2023/08/25 01:37:43;;;;;;;;;;;24.20;63.00;;;;;;5092698;27;20306;-59
2023/08/25 01:40:12;;;;;;;;;;;24.30;63.10;;;;;;5111782;27;19924;-59
2023/08/25 01:42:40;;;;;;;;;;;24.20;63.00;;;;;;5113627;27;19927;-59
2023/08/25 01:45:09;;;;;;;;;;;24.30;63.20;;;;;;5109430;27;19969;-59
2023/08/25 01:47:35;;;;;;;;;;;24.20;63.10;;;;;;5090601;28;19928;-60
2023/08/25 01:50:02;;;;;;;;;;;24.30;63.30;;;;;;5094914;27;19931;-60
2023/08/25 01:52:29;;;;;;;;;;;24.30;63.40;;;;;;5098002;28;19930;-60
2023/08/25 01:54:56;;;;;;;;;;;24.30;63.30;;;;;;5094237;28;19938;-59
2023/08/25 01:57:22;;;;;;;;;;;24.30;63.30;;;;;;5092826;28;19928;-59
2023/08/25 01:59:51;;;;;;;;;;;24.30;63.30;;;;;;5098558;28;19924;-59
2023/08/25 02:02:17;;;;;;;;;;;24.30;63.30;;;;;;5095001;28;19934;-59
2023/08/25 02:04:44;;;;;;;;;;;24.30;63.40;;;;;;5093800;27;19924;-59
2023/08/25 02:07:11;;;;;;;;;;;24.30;63.40;;;;;;5091164;28;20310;-59
2023/08/25 02:09:38;;;;;;;;;;;24.20;63.30;;;;;;5112975;27;19928;-60
2023/08/25 02:12:05;;;;;;;;;;;24.20;63.30;;;;;;5095811;28;19924;-60
2023/08/25 02:14:32;;;;;;;;;;;24.30;63.50;;;;;;5100839;28;19972;-59
2023/08/25 02:17:00;;;;;;;;;;;24.30;63.50;;;;;;5115996;27;19931;-59
2023/08/25 02:19:27;;;;;;;;;;;24.30;63.50;;;;;;5090120;28;19939;-60
2023/08/25 02:21:53;;;;;;;;;;;24.20;63.30;;;;;;5115755;27;19955;-58
2023/08/25 02:24:20;;;;;;;;;;;24.30;63.60;;;;;;5097224;28;19923;-61
2023/08/25 02:26:47;;;;;;;;;;;24.30;63.60;;;;;;5095798;27;19936;-59
2023/08/25 02:29:14;;;;;;;;;;;24.30;63.60;;;;;;5101913;28;19927;-59
2023/08/25 02:31:40;;;;;;;;;;;24.30;63.60;;;;;;5093728;28;20381;-59
2023/08/25 02:34:08;;;;;;;;;;;24.30;63.60;;;;;;5094002;28;19931;-59
2023/08/25 02:36:35;;;;;;;;;;;24.20;63.50;;;;;;5109804;28;19923;-60
2023/08/25 02:39:03;;;;;;;;;;;24.30;63.60;;;;;;5090059;28;20274;-59
2023/08/25 02:41:29;;;;;;;;;;;24.30;63.60;;;;;;5093315;28;19935;-60
2023/08/25 02:43:56;;;;;;;;;;;24.20;63.60;;;;;;5093787;28;19935;-59
2023/08/25 02:46:23;;;;;;;;;;;24.30;63.70;;;;;;5115488;28;19939;-59
2023/08/25 02:48:50;;;;;;;;;;;24.30;63.80;;;;;;5109799;28;19924;-60
2023/08/25 02:51:18;;;;;;;;;;;24.30;63.80;;;;;;5090849;28;19936;-60
2023/08/25 02:53:45;;;;;;;;;;;24.30;63.80;;;;;;5090018;28;19928;-60
2023/08/25 02:56:11;;;;;;;;;;;24.20;63.60;;;;;;5121011;28;19930;-59
2023/08/25 02:58:38;;;;;;;;;;;24.20;63.70;;;;;;5093309;28;19931;-60
2023/08/25 03:01:10;;;;;;;;;;;24.20;63.70;;;;;;5111314;28;19935;-60
2023/08/25 03:03:37;;;;;;;;;;;24.20;63.70;;;;;;5093118;28;19924;-60
2023/08/25 03:06:04;;;;;;;;;;;24.30;63.80;;;;;;5097321;28;19949;-59
2023/08/25 03:08:32;;;;;;;;;;;24.30;63.80;;;;;;5093610;28;20142;-60
2023/08/25 03:11:01;;;;;;;;;;;24.20;63.80;;;;;;5099134;27;19935;-60
2023/08/25 03:13:28;;;;;;;;;;;24.20;63.80;;;;;;5095100;28;20373;-59
2023/08/25 03:15:55;;;;;;;;;;;24.20;63.80;;;;;;5096355;28;19923;-60
2023/08/25 03:18:22;;;;;;;;;;;24.30;63.90;;;;;;5097431;28;19932;-60
2023/08/25 03:20:50;;;;;;;;;;;24.20;63.80;;;;;;5116609;27;19931;-59
2023/08/25 03:23:17;;;;;;;;;;;24.20;63.80;;;;;;5094716;27;19924;-59
2023/08/25 03:25:45;;;;;;;;;;;24.20;63.80;;;;;;5096549;28;19924;-59
2023/08/25 03:28:12;;;;;;;;;;;24.20;63.80;;;;;;5097867;28;19924;-59
2023/08/25 03:30:38;;;;;;;;;;;24.20;63.80;;;;;;5097638;27;19973;-60
2023/08/25 03:33:05;;;;;;;;;;;24.20;63.80;;;;;;5119317;27;20449;-60
2023/08/25 03:35:33;;;;;;;;;;;24.20;63.80;;;;;;5095766;28;19954;-58
2023/08/25 03:38:00;;;;;;;;;;;24.20;63.80;;;;;;5096354;28;19976;-58
2023/08/25 03:40:27;;;;;;;;;;;24.20;63.80;;;;;;5096972;28;19923;-58
2023/08/25 03:42:55;;;;;;;;;;;24.20;63.90;;;;;;5097617;27;19924;-57
2023/08/25 03:45:22;;;;;;;;;;;24.20;63.90;;;;;;5103018;28;19971;-57
2023/08/25 03:47:49;;;;;;;;;;;24.20;63.90;;;;;;5093324;28;19969;-58
2023/08/25 03:50:15;;;;;;;;;;;24.20;63.90;;;;;;5095800;28;19924;-58
2023/08/25 03:52:42;;;;;;;;;;;24.30;64.10;;;;;;5118450;27;19931;-58
2023/08/25 03:55:09;;;;;;;;;;;24.20;64.00;;;;;;5110017;27;19924;-58
2023/08/25 03:57:36;;;;;;;;;;;24.20;63.90;;;;;;5089881;28;19924;-58
2023/08/25 04:00:05;;;;;;;;;;;24.20;64.00;;;;;;5091167;28;19939;-58
2023/08/25 04:02:32;;;;;;;;;;;24.20;64.00;;;;;;5112668;27;19920;-58
2023/08/25 04:04:59;;;;;;;;;;;24.20;64.00;;;;;;5100755;27;19970;-58
2023/08/25 04:07:26;;;;;;;;;;;24.20;64.00;;;;;;5099526;27;19980;-58
2023/08/25 04:09:54;;;;;;;;;;;24.20;64.00;;;;;;5125111;27;19951;-58
2023/08/25 04:12:21;;;;;;;;;;;24.20;64.00;;;;;;5099587;28;19928;-58
2023/08/25 04:14:48;;;;;;;;;;;24.20;64.00;;;;;;5108701;27;19931;-58
2023/08/25 04:17:16;;;;;;;;;;;24.20;64.00;;;;;;5095527;28;19977;-58
2023/08/25 04:19:43;;;;;;;;;;;24.20;64.00;;;;;;5093532;27;20410;-57
2023/08/25 04:22:10;;;;;;;;;;;24.20;64.00;;;;;;5114401;27;19928;-58
2023/08/25 04:24:37;;;;;;;;;;;24.20;64.00;;;;;;5099532;28;19931;-58
2023/08/25 04:27:03;;;;;;;;;;;24.20;64.00;;;;;;5097551;27;19939;-58
2023/08/25 04:29:30;;;;;;;;;;;24.20;64.00;;;;;;5099755;28;19955;-57
2023/08/25 04:31:57;;;;;;;;;;;24.20;64.00;;;;;;5097065;27;19927;-57
2023/08/25 04:34:25;;;;;;;;;;;24.20;64.10;;;;;;5099388;28;19932;-58
2023/08/25 04:36:52;;;;;;;;;;;24.20;64.00;;;;;;5099700;28;19984;-58
2023/08/25 04:39:18;;;;;;;;;;;24.20;64.10;;;;;;5114344;27;19931;-58
2023/08/25 04:41:45;;;;;;;;;;;24.20;64.10;;;;;;5100917;27;20439;-57
2023/08/25 04:44:12;;;;;;;;;;;24.20;64.10;;;;;;5119058;27;19924;-57
2023/08/25 04:46:39;;;;;;;;;;;24.20;64.10;;;;;;5118175;27;19924;-57
2023/08/25 04:49:06;;;;;;;;;;;24.20;64.10;;;;;;5102387;28;19924;-58
2023/08/25 04:51:34;;;;;;;;;;;24.20;64.10;;;;;;5093482;28;20385;-57
2023/08/25 04:54:00;;;;;;;;;;;24.20;64.10;;;;;;5095052;27;19923;-58
2023/08/25 04:56:27;;;;;;;;;;;24.20;64.10;;;;;;5095374;28;19935;-58
2023/08/25 04:58:54;;;;;;;;;;;24.20;64.10;;;;;;5095286;27;19949;-58
2023/08/25 05:01:21;;;;;;;;;;;24.20;64.10;;;;;;5090531;28;20132;-58
2023/08/25 05:03:48;;;;;;;;;;;24.20;64.20;;;;;;5096061;27;19924;-58
2023/08/25 05:06:15;;;;;;;;;;;24.20;64.20;;;;;;5095234;28;19924;-58
2023/08/25 05:08:44;;;;;;;;;;;24.20;64.20;;;;;;5124462;27;19924;-58
2023/08/25 05:11:11;;;;;;;;;;;24.20;64.20;;;;;;5117722;27;19928;-57
2023/08/25 05:13:37;;;;;;;;;;;24.20;64.30;;;;;;5094154;28;19923;-58
2023/08/25 05:16:04;;;;;;;;;;;24.20;64.30;;;;;;5095434;27;19930;-57
2023/08/25 05:18:32;;;;;;;;;;;24.20;64.30;;;;;;5092335;28;19924;-57
2023/08/25 05:20:59;;;;;;;;;;;24.20;64.30;;;;;;5090982;28;19931;-60
2023/08/25 05:23:26;;;;;;;;;;;24.20;64.30;;;;;;5096412;28;19978;-60
2023/08/25 05:25:55;;;;;;;;;;;24.20;64.30;;;;;;5096289;27;19931;-60
2023/08/25 05:28:22;;;;;;;;;;;24.20;64.30;;;;;;5095013;28;19928;-59
2023/08/25 05:30:49;;;;;;;;;;;24.20;64.30;;;;;;5093409;28;19927;-60
2023/08/25 05:33:16;;;;;;;;;;;24.20;64.30;;;;;;5092424;28;19959;-59
2023/08/25 05:35:43;;;;;;;;;;;24.20;64.30;;;;;;5118859;27;19938;-60
2023/08/25 05:38:09;;;;;;;;;;;24.20;64.30;;;;;;5110936;27;19927;-59
2023/08/25 05:40:36;;;;;;;;;;;24.10;64.30;;;;;;5092850;28;19924;-60
2023/08/25 05:43:04;;;;;;;;;;;24.20;64.30;;;;;;5093544;27;19923;-60
2023/08/25 05:45:31;;;;;;;;;;;24.20;64.40;;;;;;5118748;27;19928;-60
2023/08/25 05:47:58;;;;;;;;;;;24.20;64.40;;;;;;5094661;27;19976;-60
2023/08/25 05:50:25;;;;;;;;;;;24.20;64.40;;;;;;5091346;28;19924;-60
2023/08/25 05:52:53;;;;;;;;;;;24.20;64.40;;;;;;5097558;27;19923;-60
2023/08/25 05:55:20;;;;;;;;;;;24.20;64.40;;;;;;5116212;27;19932;-59
2023/08/25 05:57:47;;;;;;;;;;;24.20;64.40;;;;;;5093736;27;20344;-60
2023/08/25 06:00:17;;;;;;;;;;;24.20;64.50;;;;;;5093049;28;19983;-60
2023/08/25 06:02:44;;;;;;;;;;;24.20;64.50;;;;;;5123194;27;19924;-57
2023/08/25 06:05:11;;;;;;;;;;;24.20;64.60;;;;;;5114675;27;19924;-57
2023/08/25 06:07:38;;;;;;;;;;;24.20;64.50;;;;;;5099251;27;19981;-57
2023/08/25 06:10:05;;;;;;;;;;;24.20;64.60;;;;;;5099222;27;19939;-57
2023/08/25 06:12:32;;;;;;;;;;;24.20;64.50;;;;;;5090085;28;19923;-57
2023/08/25 06:14:58;;;;;;;;;;;24.20;64.60;;;;;;5094507;28;19923;-57
2023/08/25 06:17:26;;;;;;;;;;;24.20;64.40;;;;;;5102440;27;19928;-58
2023/08/25 06:19:53;;;;;;;;;;;24.20;64.50;;;;;;5102832;27;19924;-57
2023/08/25 06:22:20;;;;;;;;;;;24.20;64.50;;;;;;5123439;27;19954;-58
2023/08/25 06:24:47;;;;;;;;;;;24.20;64.90;;;;;;5107416;27;20608;-57
2023/08/25 06:27:14;;;;;;;;;;;24.20;65.20;;;;;;5084224;28;19924;-57
2023/08/25 06:29:40;;;;;;;;;;;24.20;65.40;;;;;;5109933;28;19928;-57
2023/08/25 06:32:07;;;;;;;;;;;24.20;65.60;;;;;;5110694;28;19945;-57
2023/08/25 06:34:35;;;;;;;;;;;24.20;65.80;;;;;;5086708;28;19927;-58
2023/08/25 06:37:02;;;;;;;;;;;24.20;65.70;;;;;;5091106;28;19923;-58
2023/08/25 06:39:29;;;;;;;;;;;24.20;65.60;;;;;;5099522;28;19957;-59
2023/08/25 06:41:56;;;;;;;;;;;24.10;65.50;;;;;;5094967;28;19931;-59
2023/08/25 06:44:22;;;;;;;;;;;24.10;65.50;;;;;;5094353;28;19924;-60
2023/08/25 06:46:49;;;;;;;;;;;24.20;65.50;;;;;;5095876;28;20320;-60
2023/08/25 06:49:16;;;;;;;;;;;24.10;65.40;;;;;;5098839;28;19924;-60
2023/08/25 06:51:45;;;;;;;;;;;24.20;65.50;;;;;;5117963;28;20064;-59
2023/08/25 06:54:11;;;;;;;;;;;24.20;65.40;;;;;;5093489;28;21623;-59
2023/08/25 06:56:38;;;;;;;;;;;24.20;65.30;;;;;;5108684;27;19973;-59
2023/08/25 06:59:05;;;;;;;;;;;24.10;65.30;;;;;;5092947;28;19932;-58
2023/08/25 07:01:32;;;;;;;;;;;24.20;65.40;;;;;;5095824;28;19920;-59
2023/08/25 07:03:59;;;;;;;;;;;24.20;65.30;;;;;;5096281;28;19928;-59
2023/08/25 07:06:26;;;;;;;;;;;24.20;65.30;;;;;;5115815;28;19920;-59
2023/08/25 07:08:54;;;;;;;;;;;24.20;65.20;;;;;;5087203;28;19924;-59
2023/08/25 07:11:21;;;;;;;;;;;24.20;65.10;;;;;;5095490;28;19962;-58
2023/08/25 07:13:48;;;;;;;;;;;24.20;65.20;;;;;;5093313;28;19924;-59
2023/08/25 07:16:15;;;;;;;;;;;24.20;65.10;;;;;;5095772;28;19977;-60
2023/08/25 07:18:41;;;;;;;;;;;24.20;64.90;;;;;;5094707;28;19973;-61
2023/08/25 07:21:09;;;;;;;;;;;24.20;65.30;;;;;;5109523;28;19924;-62
2023/08/25 07:23:36;;;;;;;;;;;24.20;65.80;;;;;;5110316;28;20327;-62
2023/08/25 07:26:04;;;;;;;;;;;24.20;65.80;;;;;;5098210;28;19928;-61
2023/08/25 07:28:31;;;;;;;;;;;24.20;66.10;;;;;;5089336;28;19931;-61
2023/08/25 07:30:59;;;;;;;;;;;24.20;66.10;;;;;;5088149;28;19932;-62
2023/08/25 07:33:26;;;;;;;;;;;24.20;66.20;;;;;;5113716;28;20026;-62
2023/08/25 07:35:53;;;;;;;;;;;24.20;66.30;;;;;;5095977;28;19924;-62
2023/08/25 07:38:19;;;;;;;;;;;24.20;66.40;;;;;;5092120;28;20013;-62
2023/08/25 07:40:46;;;;;;;;;;;24.20;67.20;;;;;;5108552;28;20384;-63
2023/08/25 07:43:14;;;;;;;;;;;24.10;66.30;;;;;;5087949;28;19933;-62
2023/08/25 07:45:41;;;;;;;;;;;24.10;66.30;;;;;;5114380;28;19932;-62
2023/08/25 07:48:08;;;;;;;;;;;24.20;66.50;;;;;;5098773;28;20277;-62
2023/08/25 07:50:35;;;;;;;;;;;24.10;66.40;;;;;;5092531;28;19931;-61
2023/08/25 07:53:02;;;;;;;;;;;24.10;67.20;;;;;;5097416;28;19932;-62
2023/08/25 07:55:29;;;;;;;;;;;24.10;66.50;;;;;;5099141;28;19938;-62
2023/08/25 07:57:56;;;;;;;;;;;24.10;66.60;;;;;;5096684;27;19931;-62
2023/08/25 08:00:26;;;;;;;;;;;24.10;66.70;;;;;;5095124;28;20161;-61
2023/08/25 08:02:53;;;;;;;;;;;24.10;66.60;;;;;;5111410;27;19924;-61
2023/08/25 08:05:20;;;;;;;;;;;24.10;66.70;;;;;;5096701;28;19923;-61
2023/08/25 08:07:47;;;;;;;;;;;24.10;66.80;;;;;;5103203;27;19924;-61
2023/08/25 08:10:14;;;;;;;;;;;24.10;66.80;;;;;;5118305;27;19943;-62
2023/08/25 08:12:42;;;;;;;;;;;24.10;66.70;;;;;;5119944;27;19924;-62
2023/08/25 08:15:09;;;;;;;;;;;24.10;66.80;;;;;;5100184;28;19924;-61
2023/08/25 08:17:38;;;;;;;;;;;24.10;66.90;;;;;;5101870;28;19924;-59
2023/08/25 08:20:07;;;;;;;;;;;24.10;67.00;;;;;;5100525;28;19930;-62
2023/08/25 08:22:33;;;;;;;;;;;24.10;67.00;;;;;;5100577;28;19923;-61
2023/08/25 08:25:00;;;;;;;;;;;24.10;66.90;;;;;;5100968;28;19969;-60
2023/08/25 08:27:28;;;;;;;;;;;24.10;66.90;;;;;;5115370;27;19927;-64
2023/08/25 08:29:55;;;;;;;;;;;24.10;67.60;;;;;;5101865;27;19963;-61
2023/08/25 08:32:22;;;;;;;;;;;24.10;66.80;;;;;;5099919;28;20015;-61
2023/08/25 08:34:50;;;;;;;;;;;24.10;66.70;;;;;;5098580;28;19928;-61
2023/08/25 08:37:17;;;;;;;;;;;24.10;66.60;;;;;;5121544;27;19924;-62
2023/08/25 08:39:45;;;;;;;;;;;24.10;66.70;;;;;;5099730;27;19924;-63
2023/08/25 08:42:12;;;;;;;;;;;24.10;66.60;;;;;;5102002;28;19967;-61
2023/08/25 08:44:39;;;;;;;;;;;24.10;66.60;;;;;;5103060;28;19950;-62
2023/08/25 08:47:06;;;;;;;;;;;24.10;66.50;;;;;;5099033;28;19924;-61
2023/08/25 08:49:33;;;;;;;;;;;24.10;66.50;;;;;;5097513;27;19986;-58
2023/08/25 08:52:03;;;;;;;;;;;24.10;66.50;;;;;;5130342;27;19928;-60
2023/08/25 08:54:30;;;;;;;;;;;24.10;66.30;;;;;;5101643;27;20011;-61
2023/08/25 08:56:57;;;;;;;;;;;24.10;66.30;;;;;;5105510;28;20018;-61
2023/08/25 08:59:24;;;;;;;;;;;24.10;66.30;;;;;;5096777;28;19928;-61
2023/08/25 09:01:51;;;;;;;;;;;24.10;66.40;;;;;;5118948;27;19923;-60
2023/08/25 09:04:18;;;;;;;;;;;24.10;66.30;;;;;;5099401;28;19924;-65
2023/08/25 09:06:45;;;;;;;;;;;24.10;66.20;;;;;;5118076;27;19927;-59
2023/08/25 09:09:13;;;;;;;;;;;24.10;66.30;;;;;;5098213;28;19947;-61
2023/08/25 09:11:40;;;;;;;;;;;24.10;66.40;;;;;;5122253;27;19924;-61
2023/08/25 09:14:07;;;;;;;;;;;24.10;66.30;;;;;;5120388;27;19949;-60
2023/08/25 09:16:35;;;;;;;;;;;24.10;66.30;;;;;;5096670;28;19932;-62
2023/08/25 09:19:02;;;;;;;;;;;24.10;66.30;;;;;;5096388;28;19920;-61
2023/08/25 09:21:29;;;;;;;;;;;24.10;66.30;;;;;;5107781;27;19928;-61
2023/08/25 09:23:58;;;;;;;;;;;24.10;66.30;;;;;;5117589;27;19932;-62
2023/08/25 09:26:26;;;;;;;;;;;24.10;66.40;;;;;;5099556;27;20022;-60
2023/08/25 09:28:54;;;;;;;;;;;24.10;66.50;;;;;;5115503;27;19930;-61
2023/08/25 09:31:21;;;;;;;;;;;24.10;66.50;;;;;;5121939;27;19923;-65
2023/08/25 09:33:48;;;;;;;;;;;24.10;66.50;;;;;;5099385;27;19939;-61
2023/08/25 09:36:15;;;;;;;;;;;24.10;66.50;;;;;;5099860;28;19924;-62
2023/08/25 09:38:44;;;;;;;;;;;24.10;66.50;;;;;;5101573;28;19931;-61
2023/08/25 09:41:11;;;;;;;;;;;24.10;66.60;;;;;;5091481;28;19945;-60
2023/08/25 09:43:40;;;;;;;;;;;24.10;66.60;;;;;;5096863;28;19931;-61
2023/08/25 09:46:07;;;;;;;;;;;24.10;66.50;;;;;;5116708;27;19924;-61
2023/08/25 09:48:34;;;;;;;;;;;24.10;66.50;;;;;;5098000;28;19924;-62
2023/08/25 09:51:01;;;;;;;;;;;24.10;66.50;;;;;;5111427;27;19924;-62
2023/08/25 09:53:30;;;;;;;;;;;24.10;66.30;;;;;;5101305;27;19928;-61
2023/08/25 09:56:02;;;;;;;;;;;24.10;66.30;;;;;;5101953;27;19927;-62
2023/08/25 09:58:29;;;;;;;;;;;24.10;66.30;;;;;;5091698;28;19923;-62
2023/08/25 10:00:58;;;;;;;;;;;24.10;66.30;;;;;;5104749;27;19928;-62
2023/08/25 10:03:25;;;;;;;;;;;24.20;66.40;;;;;;5101560;28;19924;-59
2023/08/25 10:05:52;;;;;;;;;;;24.20;66.40;;;;;;5103673;28;20013;-60
2023/08/25 10:08:18;;;;;;;;;;;24.10;66.30;;;;;;5097615;28;19938;-60
2023/08/25 10:10:45;;;;;;;;;;;24.10;66.30;;;;;;5098273;27;19924;-60
2023/08/25 10:13:15;;;;;;;;;;;24.10;66.30;;;;;;5122575;27;19923;-60
2023/08/25 10:15:42;;;;;;;;;;;24.20;66.40;;;;;;5100640;27;19934;-60
2023/08/25 10:18:10;;;;;;;;;;;24.10;66.40;;;;;;5110965;27;19924;-62
2023/08/25 10:20:37;;;;;;;;;;;24.10;66.40;;;;;;5098291;28;19923;-61
2023/08/25 10:23:06;;;;;;;;;;;24.20;66.60;;;;;;5115499;27;19927;-61
2023/08/25 10:25:33;;;;;;;;;;;24.20;66.50;;;;;;5102212;28;19928;-61
2023/08/25 10:28:05;;;;;;;;;;;24.20;66.50;;;;;;5093314;27;19928;-61
2023/08/25 10:30:31;;;;;;;;;;;24.20;66.50;;;;;;5093309;28;20002;-61
2023/08/25 10:32:59;;;;;;;;;;;24.20;66.50;;;;;;5096243;27;20298;-61
2023/08/25 10:35:41;;;;;;;;;;;24.20;66.50;;;;;;5101687;27;19976;-61
2023/08/25 10:38:22;;;;;;;;;;;24.20;66.60;;;;;;5103817;28;19919;-60
2023/08/25 10:40:49;;;;;;;;;;;24.20;66.60;;;;;;5097729;28;19935;-61
2023/08/25 10:43:18;;;;;;;;;;;24.20;66.60;;;;;;5113010;28;19924;-60
2023/08/25 10:45:44;;;;;;;;;;;24.20;66.60;;;;;;5106497;28;20344;-61
2023/08/25 10:48:11;;;;;;;;;;;24.20;66.60;;;;;;5096741;28;19962;-60
2023/08/25 10:50:38;;;;;;;;;;;24.20;66.70;;;;;;5100889;28;20380;-61
2023/08/25 10:53:06;;;;;;;;;;;24.20;67.00;;;;;;5102260;28;19923;-61
2023/08/25 10:55:33;;;;;;;;;;;24.20;67.20;;;;;;5098127;28;19935;-61
2023/08/25 10:58:03;;;;;;;;;;;24.20;67.30;;;;;;5101742;28;19942;-60
2023/08/25 11:00:31;;;;;;;;;;;24.20;67.50;;;;;;5107036;28;19924;-60
2023/08/25 11:02:58;;;;;;;;;;;24.20;67.30;;;;;;5096052;28;19955;-61
2023/08/25 11:05:43;;;;;;;;;;;24.10;67.40;;;;;;5104863;28;19942;-61
2023/08/25 11:08:27;;;;;;;;;;;24.10;67.60;;;;;;5123875;28;19963;-60
2023/08/25 11:11:13;;;;;;;;;;;24.20;67.80;;;;;;5114603;28;19928;-61
2023/08/25 11:13:40;;;;;;;;;;;24.20;67.70;;;;;;5094480;28;19980;-61
2023/08/25 11:16:07;;;;;;;;;;;24.20;67.70;;;;;;5097846;28;19924;-61
2023/08/25 11:18:34;;;;;;;;;;;24.10;67.70;;;;;;5102410;28;19932;-62
2023/08/25 11:21:02;;;;;;;;;;;24.10;67.70;;;;;;5091636;28;19924;-61
2023/08/25 11:23:36;;;;;;;;;;;24.10;67.60;;;;;;5088208;28;20019;-61
2023/08/25 11:26:03;;;;;;;;;;;24.10;67.40;;;;;;5125590;27;19923;-63
2023/08/25 11:28:29;;;;;;;;;;;24.20;67.50;;;;;;5099430;28;19923;-62
2023/08/25 11:30:57;;;;;;;;;;;24.10;67.30;;;;;;5101408;27;19927;-61
2023/08/25 11:33:25;;;;;;;;;;;24.20;67.30;;;;;;5114282;27;19930;-61
2023/08/25 11:35:52;;;;;;;;;;;24.10;67.20;;;;;;5101133;27;19946;-61
2023/08/25 11:38:19;;;;;;;;;;;24.10;67.80;;;;;;5098695;27;19923;-60
2023/08/25 11:40:47;;;;;;;;;;;24.20;67.20;;;;;;5093011;28;19924;-60
2023/08/25 11:43:14;;;;;;;;;;;24.10;67.10;;;;;;5107939;27;19930;-63
2023/08/25 11:45:41;;;;;;;;;;;24.20;67.20;;;;;;5097140;27;19928;-60
2023/08/25 11:48:08;;;;;;;;;;;24.10;67.10;;;;;;5100744;27;19931;-60
2023/08/25 11:50:35;;;;;;;;;;;24.10;67.10;;;;;;5111916;27;19927;-60
2023/08/25 11:53:03;;;;;;;;;;;24.20;67.30;;;;;;5105279;27;19931;-60
2023/08/25 11:55:33;;;;;;;;;;;24.20;67.20;;;;;;5104463;28;20372;-61
2023/08/25 11:58:05;;;;;;;;;;;24.20;67.30;;;;;;5097018;28;19924;-61
2023/08/25 12:00:35;;;;;;;;;;;24.10;67.30;;;;;;5126845;27;19923;-61
2023/08/25 12:03:02;;;;;;;;;;;24.10;67.30;;;;;;5101104;27;20002;-60
2023/08/25 12:05:30;;;;;;;;;;;24.10;67.40;;;;;;5100700;28;19976;-60
2023/08/25 12:07:59;;;;;;;;;;;24.10;67.50;;;;;;5095596;28;19928;-61
2023/08/25 12:10:26;;;;;;;;;;;24.10;67.40;;;;;;5088936;28;19931;-60
2023/08/25 12:12:53;;;;;;;;;;;24.10;67.40;;;;;;5119865;27;20503;-61
2023/08/25 12:15:21;;;;;;;;;;;24.10;67.40;;;;;;5100654;28;19963;-60
2023/08/25 12:17:48;;;;;;;;;;;24.10;67.40;;;;;;5095688;28;19928;-60
2023/08/25 12:20:15;;;;;;;;;;;24.10;67.40;;;;;;5128536;27;19927;-61
2023/08/25 12:22:50;;;;;;;;;;;24.10;67.40;;;;;;5099304;27;19930;-60
2023/08/25 12:25:16;;;;;;;;;;;24.10;68.20;;;;;;5102077;28;19928;-59
2023/08/25 12:27:43;;;;;;;;;;;24.10;67.30;;;;;;5102373;27;19928;-61
2023/08/25 12:30:11;;;;;;;;;;;24.10;67.30;;;;;;5091760;28;19932;-60
2023/08/25 12:32:39;;;;;;;;;;;24.10;67.40;;;;;;5112783;28;19927;-61
2023/08/25 12:35:06;;;;;;;;;;;24.10;67.40;;;;;;5102309;27;19930;-61
2023/08/25 12:37:33;;;;;;;;;;;24.10;67.40;;;;;;5101786;28;19925;-61
2023/08/25 12:39:59;;;;;;;;;;;24.10;67.40;;;;;;5102650;28;20001;-61
2023/08/25 12:42:26;;;;;;;;;;;24.10;67.40;;;;;;5108588;27;19923;-61
2023/08/25 12:44:53;;;;;;;;;;;24.10;67.40;;;;;;5123021;27;19924;-61
2023/08/25 12:47:20;;;;;;;;;;;24.10;67.30;;;;;;5096661;27;20068;-61
2023/08/25 12:49:48;;;;;;;;;;;24.10;67.30;;;;;;5120340;27;19981;-61
2023/08/25 12:52:16;;;;;;;;;;;24.10;67.30;;;;;;5097402;28;19931;-62
2023/08/25 12:54:43;;;;;;;;;;;24.10;67.30;;;;;;5099039;27;19927;-61
2023/08/25 12:57:10;;;;;;;;;;;24.10;67.30;;;;;;5097195;27;20356;-59
2023/08/25 12:59:38;;;;;;;;;;;24.10;67.20;;;;;;5126954;27;20381;-60
2023/08/25 13:02:04;;;;;;;;;;;24.10;67.30;;;;;;5118778;27;19923;-60
2023/08/25 13:04:31;;;;;;;;;;;24.10;67.20;;;;;;5096556;28;19928;-60
2023/08/25 13:06:59;;;;;;;;;;;24.10;67.30;;;;;;5117996;27;19927;-60
2023/08/25 13:09:26;;;;;;;;;;;24.10;67.20;;;;;;5113062;27;19924;-61
2023/08/25 13:11:53;;;;;;;;;;;24.10;67.30;;;;;;5100210;28;19930;-61
2023/08/25 13:14:20;;;;;;;;;;;24.20;67.30;;;;;;5121475;27;20372;-62
2023/08/25 13:16:47;;;;;;;;;;;24.10;67.20;;;;;;5095163;27;19970;-60
2023/08/25 13:19:14;;;;;;;;;;;24.10;67.20;;;;;;5116591;27;20096;-61
2023/08/25 13:21:41;;;;;;;;;;;24.10;67.40;;;;;;5118991;27;19923;-60
2023/08/25 13:24:09;;;;;;;;;;;24.10;67.30;;;;;;5096773;28;19938;-61
2023/08/25 13:26:36;;;;;;;;;;;24.10;67.30;;;;;;5121237;27;19935;-60
2023/08/25 13:29:03;;;;;;;;;;;24.10;67.20;;;;;;5106749;28;19931;-60
2023/08/25 13:31:30;;;;;;;;;;;24.10;67.30;;;;;;5097729;28;19931;-61
2023/08/25 13:33:58;;;;;;;;;;;24.10;67.30;;;;;;5095667;28;19932;-61
2023/08/25 13:36:25;;;;;;;;;;;24.20;67.30;;;;;;5086758;28;20246;-61
2023/08/25 13:38:51;;;;;;;;;;;24.20;67.30;;;;;;5106153;27;20681;-61
2023/08/25 13:41:20;;;;;;;;;;;24.10;67.40;;;;;;5099742;28;19924;-61
2023/08/25 13:43:46;;;;;;;;;;;24.20;67.60;;;;;;5095323;28;19938;-60
2023/08/25 13:46:13;;;;;;;;;;;24.10;67.60;;;;;;5095221;28;19928;-61
2023/08/25 13:48:40;;;;;;;;;;;24.20;68.00;;;;;;5098683;28;19923;-60
2023/08/25 13:51:07;;;;;;;;;;;24.20;68.20;;;;;;5118291;27;19924;-60
2023/08/25 13:53:35;;;;;;;;;;;24.20;68.20;;;;;;5097749;28;19924;-62
2023/08/25 13:56:02;;;;;;;;;;;24.10;68.30;;;;;;5115080;27;19955;-62
2023/08/25 13:58:31;;;;;;;;;;;24.20;68.50;;;;;;5099145;28;20373;-61
2023/08/25 14:00:58;;;;;;;;;;;24.10;68.50;;;;;;5085110;27;19929;-60
2023/08/25 14:03:25;;;;;;;;;;;24.20;68.90;;;;;;5093745;28;19946;-62
2023/08/25 14:05:52;;;;;;;;;;;24.10;69.40;;;;;;5121668;27;19928;-61
2023/08/25 14:08:18;;;;;;;;;;;24.20;69.50;;;;;;5093448;28;19923;-63
2023/08/25 14:10:45;;;;;;;;;;;24.20;69.60;;;;;;5093203;28;19928;-62
2023/08/25 14:13:12;;;;;;;;;;;24.20;69.60;;;;;;5097584;27;19930;-65
2023/08/25 14:15:40;;;;;;;;;;;24.10;69.50;;;;;;5095622;28;19929;-63
2023/08/25 14:18:07;;;;;;;;;;;24.10;69.40;;;;;;5094629;28;19924;-60